<?xml version="1.0" encoding="UTF-8" standalone="no" ?>
<gpx xmlns="http://www.topografix.com/GPX/1/1" xmlns:xsi="http://www.w3.org/2001/XMLSchema-instance" xsi:schemaLocation="http://www.topografix.com/GPX/1/1 http://www.topografix.com/GPX/1/1/gpx.xsd" version="1.1" creator="VisuGPX - https://www.visugpx.com">
  <metadata>
    <name>Norvège</name>
  </metadata>
  <trk>
    <name><![CDATA[Tour d'Europe: étape 036]]></name>
    <trkseg>
      <trkpt lat="62.90388" lon="6.92892">
        <ele>67.913083</ele>
        <time>2020-08-03T08:18:38.067Z</time>
      </trkpt>
      <trkpt lat="62.90514" lon="6.92628">
        <ele>58.082102</ele>
        <time>2020-08-03T08:24:51.130Z</time>
      </trkpt>
      <trkpt lat="62.90559" lon="6.92162">
        <ele>57.125509</ele>
        <time>2020-08-03T08:25:36.107Z</time>
      </trkpt>
      <trkpt lat="62.9064" lon="6.91735">
        <ele>57.447654</ele>
        <time>2020-08-03T08:26:20.098Z</time>
      </trkpt>
      <trkpt lat="62.90749" lon="6.91586">
        <ele>60.521118</ele>
        <time>2020-08-03T08:27:16.092Z</time>
      </trkpt>
      <trkpt lat="62.90884" lon="6.91951">
        <ele>59.844067</ele>
        <time>2020-08-03T08:28:16.092Z</time>
      </trkpt>
      <trkpt lat="62.91063" lon="6.92292">
        <ele>60.793229</ele>
        <time>2020-08-03T08:29:12.086Z</time>
      </trkpt>
      <trkpt lat="62.91237" lon="6.92608">
        <ele>64.686779</ele>
        <time>2020-08-03T08:30:04.132Z</time>
      </trkpt>
      <trkpt lat="62.91407" lon="6.92939">
        <ele>58.523129</ele>
        <time>2020-08-03T08:30:49.116Z</time>
      </trkpt>
      <trkpt lat="62.91587" lon="6.93142">
        <ele>58.271467</ele>
        <time>2020-08-03T08:31:56.113Z</time>
      </trkpt>
      <trkpt lat="62.91708" lon="6.93511">
        <ele>59.78001</ele>
        <time>2020-08-03T08:32:39.108Z</time>
      </trkpt>
      <trkpt lat="62.91837" lon="6.93904">
        <ele>57.980843</ele>
        <time>2020-08-03T08:33:21.074Z</time>
      </trkpt>
      <trkpt lat="62.91975" lon="6.94352">
        <ele>54.500261</ele>
        <time>2020-08-03T08:34:01.085Z</time>
      </trkpt>
      <trkpt lat="62.92152" lon="6.94611">
        <ele>56.481799</ele>
        <time>2020-08-03T08:34:41.071Z</time>
      </trkpt>
      <trkpt lat="62.92247" lon="6.9503">
        <ele>59.082704</ele>
        <time>2020-08-03T08:35:23.123Z</time>
      </trkpt>
      <trkpt lat="62.9232" lon="6.95459">
        <ele>63.809967</ele>
        <time>2020-08-03T08:36:31.088Z</time>
      </trkpt>
      <trkpt lat="62.92407" lon="6.95943">
        <ele>64.448267</ele>
        <time>2020-08-03T08:37:32.092Z</time>
      </trkpt>
      <trkpt lat="62.92538" lon="6.9635">
        <ele>66.990807</ele>
        <time>2020-08-03T08:38:32.109Z</time>
      </trkpt>
      <trkpt lat="62.92667" lon="6.96709">
        <ele>65.544704</ele>
        <time>2020-08-03T08:39:14.086Z</time>
      </trkpt>
      <trkpt lat="62.92808" lon="6.9711">
        <ele>63.287305</ele>
        <time>2020-08-03T08:39:56.075Z</time>
      </trkpt>
      <trkpt lat="62.92951" lon="6.97519">
        <ele>64.947238</ele>
        <time>2020-08-03T08:40:36.114Z</time>
      </trkpt>
      <trkpt lat="62.93093" lon="6.98107">
        <ele>55.273447</ele>
        <time>2020-08-03T08:41:13.075Z</time>
      </trkpt>
      <trkpt lat="62.93266" lon="6.98409">
        <ele>57.100052</ele>
        <time>2020-08-03T08:42:06.076Z</time>
      </trkpt>
      <trkpt lat="62.93447" lon="6.98818">
        <ele>56.847549</ele>
        <time>2020-08-03T08:42:55.097Z</time>
      </trkpt>
      <trkpt lat="62.93594" lon="6.99327">
        <ele>50.854327</ele>
        <time>2020-08-03T08:43:37.075Z</time>
      </trkpt>
      <trkpt lat="62.93756" lon="6.9963">
        <ele>50.354853</ele>
        <time>2020-08-03T08:44:22.087Z</time>
      </trkpt>
      <trkpt lat="62.93967" lon="6.9975">
        <ele>54.037108</ele>
        <time>2020-08-03T08:45:17.083Z</time>
      </trkpt>
      <trkpt lat="62.94103" lon="7.00094">
        <ele>54.64718</ele>
        <time>2020-08-03T08:45:57.076Z</time>
      </trkpt>
      <trkpt lat="62.94208" lon="7.00478">
        <ele>60.5927</ele>
        <time>2020-08-03T08:46:50.119Z</time>
      </trkpt>
      <trkpt lat="62.94339" lon="7.00827">
        <ele>67.928793</ele>
        <time>2020-08-03T08:48:33.091Z</time>
      </trkpt>
      <trkpt lat="62.94426" lon="7.01277">
        <ele>67.89291</ele>
        <time>2020-08-03T08:51:25.087Z</time>
      </trkpt>
      <trkpt lat="62.94549" lon="7.01716">
        <ele>59.645722</ele>
        <time>2020-08-03T08:52:02.077Z</time>
      </trkpt>
      <trkpt lat="62.94673" lon="7.02146">
        <ele>51.819602</ele>
        <time>2020-08-03T08:52:32.077Z</time>
      </trkpt>
      <trkpt lat="62.94725" lon="7.02602">
        <ele>50.266626</ele>
        <time>2020-08-03T08:53:12.097Z</time>
      </trkpt>
      <trkpt lat="62.94794" lon="7.03031">
        <ele>51.795099</ele>
        <time>2020-08-03T08:53:54.143Z</time>
      </trkpt>
      <trkpt lat="62.94887" lon="7.03405">
        <ele>50.385663</ele>
        <time>2020-08-03T08:54:35.106Z</time>
      </trkpt>
      <trkpt lat="62.95012" lon="7.03768">
        <ele>51.725103</ele>
        <time>2020-08-03T08:55:22.085Z</time>
      </trkpt>
      <trkpt lat="62.95095" lon="7.04169">
        <ele>56.676766</ele>
        <time>2020-08-03T08:56:51.109Z</time>
      </trkpt>
      <trkpt lat="62.95167" lon="7.04676">
        <ele>56.340963</ele>
        <time>2020-08-03T08:57:44.078Z</time>
      </trkpt>
      <trkpt lat="62.95285" lon="7.05107">
        <ele>53.957875</ele>
        <time>2020-08-03T08:58:56.091Z</time>
      </trkpt>
      <trkpt lat="62.95418" lon="7.05506">
        <ele>57.224284</ele>
        <time>2020-08-03T09:00:01.085Z</time>
      </trkpt>
      <trkpt lat="62.95514" lon="7.05944">
        <ele>59.478824</ele>
        <time>2020-08-03T09:01:27.087Z</time>
      </trkpt>
      <trkpt lat="62.95581" lon="7.06381">
        <ele>65.194029</ele>
        <time>2020-08-03T09:02:34.079Z</time>
      </trkpt>
      <trkpt lat="62.95737" lon="7.0669">
        <ele>66.369669</ele>
        <time>2020-08-03T09:03:39.089Z</time>
      </trkpt>
      <trkpt lat="62.95892" lon="7.07059">
        <ele>64.047506</ele>
        <time>2020-08-03T09:04:39.111Z</time>
      </trkpt>
      <trkpt lat="62.96022" lon="7.07421">
        <ele>62.481577</ele>
        <time>2020-08-03T09:05:34.097Z</time>
      </trkpt>
      <trkpt lat="62.96179" lon="7.07854">
        <ele>59.646056</ele>
        <time>2020-08-03T09:06:28.103Z</time>
      </trkpt>
      <trkpt lat="62.96187" lon="7.08432">
        <ele>51.02727</ele>
        <time>2020-08-03T09:07:08.110Z</time>
      </trkpt>
      <trkpt lat="62.95993" lon="7.08637">
        <ele>54.305561</ele>
        <time>2020-08-03T09:08:10.084Z</time>
      </trkpt>
      <trkpt lat="62.95799" lon="7.08839">
        <ele>58.511476</ele>
        <time>2020-08-03T09:09:34.092Z</time>
      </trkpt>
      <trkpt lat="62.95565" lon="7.08994">
        <ele>51.772924</ele>
        <time>2020-08-03T09:10:20.104Z</time>
      </trkpt>
      <trkpt lat="62.95415" lon="7.09315">
        <ele>55.592904</ele>
        <time>2020-08-03T09:11:23.095Z</time>
      </trkpt>
      <trkpt lat="62.95498" lon="7.09607">
        <ele>58.936473</ele>
        <time>2020-08-03T09:12:41.115Z</time>
      </trkpt>
      <trkpt lat="62.95615" lon="7.10019">
        <ele>57.607819</ele>
        <time>2020-08-03T09:13:31.084Z</time>
      </trkpt>
      <trkpt lat="62.95672" lon="7.10513">
        <ele>60.082843</ele>
        <time>2020-08-03T09:14:34.078Z</time>
      </trkpt>
      <trkpt lat="62.95767" lon="7.10972">
        <ele>60.452472</ele>
        <time>2020-08-03T09:15:33.094Z</time>
      </trkpt>
      <trkpt lat="62.9592" lon="7.11351">
        <ele>64.537218</ele>
        <time>2020-08-03T09:16:28.088Z</time>
      </trkpt>
      <trkpt lat="62.96067" lon="7.11672">
        <ele>70.665959</ele>
        <time>2020-08-03T09:17:36.092Z</time>
      </trkpt>
      <trkpt lat="62.96225" lon="7.11996">
        <ele>76.520466</ele>
        <time>2020-08-03T09:18:49.087Z</time>
      </trkpt>
      <trkpt lat="62.96376" lon="7.12414">
        <ele>75.587763</ele>
        <time>2020-08-03T09:19:52.108Z</time>
      </trkpt>
      <trkpt lat="62.96481" lon="7.12828">
        <ele>72.374677</ele>
        <time>2020-08-03T09:20:43.091Z</time>
      </trkpt>
      <trkpt lat="62.96561" lon="7.13294">
        <ele>70.048318</ele>
        <time>2020-08-03T09:21:35.087Z</time>
      </trkpt>
      <trkpt lat="62.96613" lon="7.13722">
        <ele>70.485125</ele>
        <time>2020-08-03T09:22:15.125Z</time>
      </trkpt>
      <trkpt lat="62.96665" lon="7.14184">
        <ele>74.605994</ele>
        <time>2020-08-03T09:23:06.092Z</time>
      </trkpt>
      <trkpt lat="62.96782" lon="7.14614">
        <ele>72.49909</ele>
        <time>2020-08-03T09:23:51.098Z</time>
      </trkpt>
      <trkpt lat="62.96889" lon="7.15069">
        <ele>60.900282</ele>
        <time>2020-08-03T09:24:18.127Z</time>
      </trkpt>
      <trkpt lat="62.96992" lon="7.15515">
        <ele>56.142682</ele>
        <time>2020-08-03T09:25:00.110Z</time>
      </trkpt>
      <trkpt lat="62.97119" lon="7.15854">
        <ele>58.982647</ele>
        <time>2020-08-03T09:25:49.107Z</time>
      </trkpt>
      <trkpt lat="62.97291" lon="7.16097">
        <ele>60.279641</ele>
        <time>2020-08-03T09:26:34.112Z</time>
      </trkpt>
      <trkpt lat="62.97503" lon="7.16174">
        <ele>59.029297</ele>
        <time>2020-08-03T09:27:42.113Z</time>
      </trkpt>
      <trkpt lat="62.9771" lon="7.16099">
        <ele>62.244136</ele>
        <time>2020-08-03T09:28:45.089Z</time>
      </trkpt>
      <trkpt lat="62.97943" lon="7.16003">
        <ele>62.417944</ele>
        <time>2020-08-03T09:29:37.091Z</time>
      </trkpt>
      <trkpt lat="62.98159" lon="7.15986">
        <ele>62.838305</ele>
        <time>2020-08-03T09:30:23.113Z</time>
      </trkpt>
      <trkpt lat="62.98369" lon="7.16079">
        <ele>64.244341</ele>
        <time>2020-08-03T09:31:15.093Z</time>
      </trkpt>
      <trkpt lat="62.98567" lon="7.16242">
        <ele>61.722259</ele>
        <time>2020-08-03T09:31:57.097Z</time>
      </trkpt>
      <trkpt lat="62.98739" lon="7.16488">
        <ele>62.250694</ele>
        <time>2020-08-03T09:32:37.092Z</time>
      </trkpt>
      <trkpt lat="62.9888" lon="7.16808">
        <ele>62.040826</ele>
        <time>2020-08-03T09:33:21.097Z</time>
      </trkpt>
      <trkpt lat="62.99002" lon="7.17248">
        <ele>60.640248</ele>
        <time>2020-08-03T09:34:14.087Z</time>
      </trkpt>
      <trkpt lat="62.9907" lon="7.1775">
        <ele>64.729959</ele>
        <time>2020-08-03T09:35:08.104Z</time>
      </trkpt>
      <trkpt lat="62.99076" lon="7.18215">
        <ele>65.057151</ele>
        <time>2020-08-03T09:35:54.087Z</time>
      </trkpt>
      <trkpt lat="62.99136" lon="7.18708">
        <ele>64.769381</ele>
        <time>2020-08-03T09:36:50.103Z</time>
      </trkpt>
      <trkpt lat="62.99147" lon="7.19178">
        <ele>65.238515</ele>
        <time>2020-08-03T09:38:09.117Z</time>
      </trkpt>
      <trkpt lat="62.99107" lon="7.19646">
        <ele>65.486386</ele>
        <time>2020-08-03T09:39:03.098Z</time>
      </trkpt>
      <trkpt lat="62.98997" lon="7.20035">
        <ele>63.912431</ele>
        <time>2020-08-03T09:39:44.107Z</time>
      </trkpt>
      <trkpt lat="62.98895" lon="7.2048">
        <ele>65.127389</ele>
        <time>2020-08-03T09:40:47.093Z</time>
      </trkpt>
      <trkpt lat="62.98845" lon="7.20933">
        <ele>65.725136</ele>
        <time>2020-08-03T09:41:48.133Z</time>
      </trkpt>
      <trkpt lat="62.99034" lon="7.21269">
        <ele>60.037516</ele>
        <time>2020-08-03T09:42:31.083Z</time>
      </trkpt>
      <trkpt lat="62.99125" lon="7.21744">
        <ele>60.92147</ele>
        <time>2020-08-03T09:43:15.084Z</time>
      </trkpt>
      <trkpt lat="62.99283" lon="7.22009">
        <ele>60.985986</ele>
        <time>2020-08-03T09:44:00.104Z</time>
      </trkpt>
      <trkpt lat="62.99506" lon="7.22109">
        <ele>59.895116</ele>
        <time>2020-08-03T09:44:51.095Z</time>
      </trkpt>
      <trkpt lat="62.99722" lon="7.22375">
        <ele>57.865905</ele>
        <time>2020-08-03T09:45:38.117Z</time>
      </trkpt>
      <trkpt lat="62.99821" lon="7.22792">
        <ele>56.18421</ele>
        <time>2020-08-03T09:46:20.108Z</time>
      </trkpt>
      <trkpt lat="62.9984" lon="7.2327">
        <ele>54.981114</ele>
        <time>2020-08-03T09:47:09.090Z</time>
      </trkpt>
      <trkpt lat="62.99893" lon="7.23728">
        <ele>59.335398</ele>
        <time>2020-08-03T09:48:09.139Z</time>
      </trkpt>
      <trkpt lat="62.99963" lon="7.2422">
        <ele>60.841162</ele>
        <time>2020-08-03T09:49:14.114Z</time>
      </trkpt>
      <trkpt lat="63.00035" lon="7.247">
        <ele>61.488471</ele>
        <time>2020-08-03T09:50:00.111Z</time>
      </trkpt>
      <trkpt lat="63.00103" lon="7.25172">
        <ele>62.39325</ele>
        <time>2020-08-03T09:51:01.121Z</time>
      </trkpt>
      <trkpt lat="63.0017" lon="7.25624">
        <ele>62.494361</ele>
        <time>2020-08-03T09:51:50.090Z</time>
      </trkpt>
      <trkpt lat="63.00259" lon="7.261">
        <ele>58.836356</ele>
        <time>2020-08-03T09:52:30.129Z</time>
      </trkpt>
      <trkpt lat="63.0035" lon="7.26596">
        <ele>54.406408</ele>
        <time>2020-08-03T09:53:12.109Z</time>
      </trkpt>
      <trkpt lat="63.0043" lon="7.2704">
        <ele>55.464094</ele>
        <time>2020-08-03T09:53:54.113Z</time>
      </trkpt>
      <trkpt lat="63.00512" lon="7.27517">
        <ele>57.180021</ele>
        <time>2020-08-03T09:54:49.097Z</time>
      </trkpt>
      <trkpt lat="63.00573" lon="7.27972">
        <ele>57.852992</ele>
        <time>2020-08-03T09:55:49.095Z</time>
      </trkpt>
      <trkpt lat="63.00633" lon="7.28473">
        <ele>56.088068</ele>
        <time>2020-08-03T09:56:42.091Z</time>
      </trkpt>
      <trkpt lat="63.00652" lon="7.28944">
        <ele>58.924501</ele>
        <time>2020-08-03T09:58:06.127Z</time>
      </trkpt>
      <trkpt lat="63.00623" lon="7.29374">
        <ele>59.829593</ele>
        <time>2020-08-03T09:58:53.106Z</time>
      </trkpt>
      <trkpt lat="63.00744" lon="7.29738">
        <ele>61.983192</ele>
        <time>2020-08-03T10:00:12.133Z</time>
      </trkpt>
      <trkpt lat="63.0081" lon="7.30263">
        <ele>56.762207</ele>
        <time>2020-08-03T10:00:52.107Z</time>
      </trkpt>
      <trkpt lat="63.00914" lon="7.307">
        <ele>58.805601</ele>
        <time>2020-08-03T10:01:58.106Z</time>
      </trkpt>
      <trkpt lat="63.01054" lon="7.31139">
        <ele>53.971392</ele>
        <time>2020-08-03T10:02:32.119Z</time>
      </trkpt>
      <trkpt lat="63.01062" lon="7.3161">
        <ele>51.875056</ele>
        <time>2020-08-03T10:03:14.130Z</time>
      </trkpt>
      <trkpt lat="63.01181" lon="7.32089">
        <ele>50.426128</ele>
        <time>2020-08-03T10:03:56.117Z</time>
      </trkpt>
      <trkpt lat="63.0125" lon="7.32524">
        <ele>51.451088</ele>
        <time>2020-08-03T10:04:36.109Z</time>
      </trkpt>
      <trkpt lat="63.0131" lon="7.32952">
        <ele>52.112863</ele>
        <time>2020-08-03T10:05:16.107Z</time>
      </trkpt>
      <trkpt lat="63.01411" lon="7.33312">
        <ele>53.927896</ele>
        <time>2020-08-03T10:21:40.109Z</time>
      </trkpt>
      <trkpt lat="63.01507" lon="7.33724">
        <ele>55.677781</ele>
        <time>2020-08-03T10:22:20.111Z</time>
      </trkpt>
      <trkpt lat="63.01569" lon="7.34234">
        <ele>60.634426</ele>
        <time>2020-08-03T10:23:19.106Z</time>
      </trkpt>
      <trkpt lat="63.01676" lon="7.34594">
        <ele>60.024325</ele>
        <time>2020-08-03T10:24:00.110Z</time>
      </trkpt>
      <trkpt lat="63.01651" lon="7.35029">
        <ele>65.995709</ele>
        <time>2020-08-03T10:24:53.112Z</time>
      </trkpt>
      <trkpt lat="63.01684" lon="7.35478">
        <ele>77.201197</ele>
        <time>2020-08-03T10:26:53.124Z</time>
      </trkpt>
      <trkpt lat="63.01776" lon="7.3595">
        <ele>66.402072</ele>
        <time>2020-08-03T10:27:26.119Z</time>
      </trkpt>
      <trkpt lat="63.01822" lon="7.36488">
        <ele>56.669838</ele>
        <time>2020-08-03T10:27:49.130Z</time>
      </trkpt>
      <trkpt lat="63.0198" lon="7.37001">
        <ele>55.252807</ele>
        <time>2020-08-03T10:28:29.118Z</time>
      </trkpt>
      <trkpt lat="63.02133" lon="7.37391">
        <ele>59.758796</ele>
        <time>2020-08-03T10:29:18.111Z</time>
      </trkpt>
      <trkpt lat="63.02206" lon="7.37929">
        <ele>53.447673</ele>
        <time>2020-08-03T10:30:00.153Z</time>
      </trkpt>
      <trkpt lat="63.02079" lon="7.38285">
        <ele>53.153661</ele>
        <time>2020-08-03T10:30:44.104Z</time>
      </trkpt>
      <trkpt lat="63.01923" lon="7.38693">
        <ele>52.651292</ele>
        <time>2020-08-03T10:31:48.194Z</time>
      </trkpt>
      <trkpt lat="63.01784" lon="7.39053">
        <ele>50.51916</ele>
        <time>2020-08-03T10:32:30.098Z</time>
      </trkpt>
      <trkpt lat="63.01664" lon="7.39418">
        <ele>53.020663</ele>
        <time>2020-08-03T10:33:29.128Z</time>
      </trkpt>
      <trkpt lat="63.01506" lon="7.39802">
        <ele>54.3793</ele>
        <time>2020-08-03T10:34:20.101Z</time>
      </trkpt>
      <trkpt lat="63.01382" lon="7.40169">
        <ele>52.350647</ele>
        <time>2020-08-03T10:35:13.123Z</time>
      </trkpt>
      <trkpt lat="63.01401" lon="7.40685">
        <ele>53.761435</ele>
        <time>2020-08-03T10:36:06.105Z</time>
      </trkpt>
      <trkpt lat="63.01406" lon="7.41158">
        <ele>53.624851</ele>
        <time>2020-08-03T10:36:46.114Z</time>
      </trkpt>
      <trkpt lat="63.01337" lon="7.41585">
        <ele>57.001482</ele>
        <time>2020-08-03T10:37:59.102Z</time>
      </trkpt>
      <trkpt lat="63.01236" lon="7.42119">
        <ele>53.07368</ele>
        <time>2020-08-03T10:38:51.128Z</time>
      </trkpt>
      <trkpt lat="63.01152" lon="7.42544">
        <ele>57.535156</ele>
        <time>2020-08-03T10:39:58.108Z</time>
      </trkpt>
      <trkpt lat="63.01009" lon="7.42906">
        <ele>61.64063</ele>
        <time>2020-08-03T10:41:05.130Z</time>
      </trkpt>
      <trkpt lat="63.0098" lon="7.43281">
        <ele>64.317142</ele>
        <time>2020-08-03T10:42:08.135Z</time>
      </trkpt>
      <trkpt lat="63.01117" lon="7.43708">
        <ele>64.597424</ele>
        <time>2020-08-03T10:43:05.113Z</time>
      </trkpt>
      <trkpt lat="63.0125" lon="7.44113">
        <ele>68.033404</ele>
        <time>2020-08-03T10:44:10.131Z</time>
      </trkpt>
      <trkpt lat="63.01364" lon="7.44471">
        <ele>73.657295</ele>
        <time>2020-08-03T10:45:33.114Z</time>
      </trkpt>
      <trkpt lat="63.01491" lon="7.44875">
        <ele>73.004432</ele>
        <time>2020-08-03T10:46:38.104Z</time>
      </trkpt>
      <trkpt lat="63.0155" lon="7.4537">
        <ele>67.633979</ele>
        <time>2020-08-03T10:47:10.104Z</time>
      </trkpt>
      <trkpt lat="63.01574" lon="7.45834">
        <ele>71.090457</ele>
        <time>2020-08-03T10:48:06.148Z</time>
      </trkpt>
      <trkpt lat="63.01592" lon="7.46317">
        <ele>80.722236</ele>
        <time>2020-08-03T10:49:43.112Z</time>
      </trkpt>
      <trkpt lat="63.01611" lon="7.4675">
        <ele>86.102849</ele>
        <time>2020-08-03T10:50:54.131Z</time>
      </trkpt>
      <trkpt lat="63.01598" lon="7.47207">
        <ele>85.878499</ele>
        <time>2020-08-03T10:52:02.125Z</time>
      </trkpt>
      <trkpt lat="63.01586" lon="7.47663">
        <ele>90.037158</ele>
        <time>2020-08-03T10:53:16.109Z</time>
      </trkpt>
      <trkpt lat="63.01568" lon="7.48107">
        <ele>100.193257</ele>
        <time>2020-08-03T10:54:35.128Z</time>
      </trkpt>
      <trkpt lat="63.01607" lon="7.48568">
        <ele>97.764863</ele>
        <time>2020-08-03T10:55:38.105Z</time>
      </trkpt>
      <trkpt lat="63.01741" lon="7.48958">
        <ele>98.732459</ele>
        <time>2020-08-03T10:56:27.130Z</time>
      </trkpt>
      <trkpt lat="63.01862" lon="7.49348">
        <ele>104.377306</ele>
        <time>2020-08-03T10:57:35.114Z</time>
      </trkpt>
      <trkpt lat="63.01954" lon="7.49773">
        <ele>106.548048</ele>
        <time>2020-08-03T10:58:27.124Z</time>
      </trkpt>
      <trkpt lat="63.02028" lon="7.50187">
        <ele>106.587266</ele>
        <time>2020-08-03T10:59:08.116Z</time>
      </trkpt>
      <trkpt lat="63.02042" lon="7.50706">
        <ele>101.303855</ele>
        <time>2020-08-03T10:59:50.137Z</time>
      </trkpt>
      <trkpt lat="63.02056" lon="7.51238">
        <ele>96.039553</ele>
        <time>2020-08-03T11:00:26.115Z</time>
      </trkpt>
      <trkpt lat="63.02073" lon="7.51831">
        <ele>86.604626</ele>
        <time>2020-08-03T11:00:57.117Z</time>
      </trkpt>
      <trkpt lat="63.02034" lon="7.52292">
        <ele>86.002755</ele>
        <time>2020-08-03T11:01:37.147Z</time>
      </trkpt>
      <trkpt lat="63.01955" lon="7.52686">
        <ele>101.652199</ele>
        <time>2020-08-03T11:04:12.128Z</time>
      </trkpt>
      <trkpt lat="63.01775" lon="7.52999">
        <ele>110.264293</ele>
        <time>2020-08-03T11:05:46.124Z</time>
      </trkpt>
      <trkpt lat="63.01612" lon="7.53349">
        <ele>98.91571</ele>
        <time>2020-08-03T11:06:11.115Z</time>
      </trkpt>
      <trkpt lat="63.01453" lon="7.53759">
        <ele>92.648402</ele>
        <time>2020-08-03T11:07:01.113Z</time>
      </trkpt>
      <trkpt lat="63.01337" lon="7.5418">
        <ele>92.224743</ele>
        <time>2020-08-03T11:07:50.118Z</time>
      </trkpt>
      <trkpt lat="63.01251" lon="7.54624">
        <ele>93.237198</ele>
        <time>2020-08-03T11:08:35.127Z</time>
      </trkpt>
      <trkpt lat="63.01172" lon="7.55097">
        <ele>94.207499</ele>
        <time>2020-08-03T11:09:25.134Z</time>
      </trkpt>
      <trkpt lat="63.01092" lon="7.55599">
        <ele>88.483403</ele>
        <time>2020-08-03T11:10:08.111Z</time>
      </trkpt>
      <trkpt lat="63.00961" lon="7.56031">
        <ele>77.803402</ele>
        <time>2020-08-03T11:10:32.130Z</time>
      </trkpt>
      <trkpt lat="63.00924" lon="7.5654">
        <ele>65.432588</ele>
        <time>2020-08-03T11:10:52.127Z</time>
      </trkpt>
      <trkpt lat="63.00915" lon="7.57076">
        <ele>55.791087</ele>
        <time>2020-08-03T11:11:15.130Z</time>
      </trkpt>
      <trkpt lat="63.00855" lon="7.5756">
        <ele>60.671096</ele>
        <time>2020-08-03T11:12:20.162Z</time>
      </trkpt>
      <trkpt lat="63.00911" lon="7.57981">
        <ele>76.111276</ele>
        <time>2020-08-03T11:14:14.124Z</time>
      </trkpt>
      <trkpt lat="63.01032" lon="7.58351">
        <ele>82.213802</ele>
        <time>2020-08-03T11:15:52.157Z</time>
      </trkpt>
      <trkpt lat="63.01188" lon="7.58678">
        <ele>81.159903</ele>
        <time>2020-08-03T11:17:00.130Z</time>
      </trkpt>
      <trkpt lat="63.0135" lon="7.59031">
        <ele>73.214345</ele>
        <time>2020-08-03T11:17:24.117Z</time>
      </trkpt>
      <trkpt lat="63.01611" lon="7.58941">
        <ele>61.770779</ele>
        <time>2020-08-03T11:17:55.129Z</time>
      </trkpt>
      <trkpt lat="63.01838" lon="7.58819">
        <ele>58.528109</ele>
        <time>2020-08-03T11:18:32.145Z</time>
      </trkpt>
      <trkpt lat="63.02024" lon="7.58974">
        <ele>63.59648</ele>
        <time>2020-08-03T11:19:23.136Z</time>
      </trkpt>
      <trkpt lat="63.02118" lon="7.59402">
        <ele>64.499017</ele>
        <time>2020-08-03T11:20:23.126Z</time>
      </trkpt>
      <trkpt lat="63.02241" lon="7.59777">
        <ele>63.335916</ele>
        <time>2020-08-03T11:21:14.113Z</time>
      </trkpt>
      <trkpt lat="63.02458" lon="7.59768">
        <ele>64.52686</ele>
        <time>2020-08-03T11:22:00.130Z</time>
      </trkpt>
      <trkpt lat="63.02664" lon="7.59696">
        <ele>71.057891</ele>
        <time>2020-08-03T11:23:12.135Z</time>
      </trkpt>
      <trkpt lat="63.02861" lon="7.59753">
        <ele>82.737087</ele>
        <time>2020-08-03T11:24:55.129Z</time>
      </trkpt>
      <trkpt lat="63.02986" lon="7.60099">
        <ele>87.387012</ele>
        <time>2020-08-03T11:26:07.137Z</time>
      </trkpt>
      <trkpt lat="63.03154" lon="7.60353">
        <ele>86.764818</ele>
        <time>2020-08-03T11:27:02.137Z</time>
      </trkpt>
      <trkpt lat="63.033" lon="7.60693">
        <ele>84.605376</ele>
        <time>2020-08-03T11:27:45.135Z</time>
      </trkpt>
      <trkpt lat="63.03518" lon="7.60851">
        <ele>82.014205</ele>
        <time>2020-08-03T11:28:34.124Z</time>
      </trkpt>
      <trkpt lat="63.03731" lon="7.61097">
        <ele>79.219186</ele>
        <time>2020-08-03T11:29:23.118Z</time>
      </trkpt>
      <trkpt lat="63.03936" lon="7.61301">
        <ele>81.184343</ele>
        <time>2020-08-03T11:30:11.154Z</time>
      </trkpt>
      <trkpt lat="63.04043" lon="7.61729">
        <ele>85.892652</ele>
        <time>2020-08-03T11:31:05.117Z</time>
      </trkpt>
      <trkpt lat="63.04234" lon="7.61876">
        <ele>92.2978</ele>
        <time>2020-08-03T11:32:18.130Z</time>
      </trkpt>
      <trkpt lat="63.04383" lon="7.61595">
        <ele>95.101282</ele>
        <time>2020-08-03T11:33:45.126Z</time>
      </trkpt>
      <trkpt lat="63.04576" lon="7.61924">
        <ele>91.838194</ele>
        <time>2020-08-03T11:34:41.118Z</time>
      </trkpt>
      <trkpt lat="63.04809" lon="7.61905">
        <ele>89.682363</ele>
        <time>2020-08-03T11:35:21.116Z</time>
      </trkpt>
      <trkpt lat="63.04999" lon="7.62153">
        <ele>79.555942</ele>
        <time>2020-08-03T11:35:55.122Z</time>
      </trkpt>
      <trkpt lat="63.05152" lon="7.62532">
        <ele>61.424059</ele>
        <time>2020-08-03T11:36:21.128Z</time>
      </trkpt>
      <trkpt lat="63.05165" lon="7.63008">
        <ele>49.399785</ele>
        <time>2020-08-03T11:36:49.128Z</time>
      </trkpt>
      <trkpt lat="63.0527" lon="7.63415">
        <ele>48.161431</ele>
        <time>2020-08-03T11:45:24.157Z</time>
      </trkpt>
      <trkpt lat="63.05419" lon="7.63249">
        <ele>53.163252</ele>
        <time>2020-08-03T11:46:16.147Z</time>
      </trkpt>
      <trkpt lat="63.056" lon="7.63475">
        <ele>65.608361</ele>
        <time>2020-08-03T11:47:02.151Z</time>
      </trkpt>
      <trkpt lat="63.0579" lon="7.63845">
        <ele>77.19791</ele>
        <time>2020-08-03T11:47:23.127Z</time>
      </trkpt>
      <trkpt lat="63.0609" lon="7.64067">
        <ele>85.336025</ele>
        <time>2020-08-03T11:47:43.149Z</time>
      </trkpt>
      <trkpt lat="63.06396" lon="7.64284">
        <ele>83.132241</ele>
        <time>2020-08-03T11:48:04.150Z</time>
      </trkpt>
      <trkpt lat="63.06687" lon="7.64454">
        <ele>73.118062</ele>
        <time>2020-08-03T11:48:24.134Z</time>
      </trkpt>
      <trkpt lat="63.06934" lon="7.64616">
        <ele>71.830716</ele>
        <time>2020-08-03T11:49:09.138Z</time>
      </trkpt>
      <trkpt lat="63.07221" lon="7.64403">
        <ele>64.379754</ele>
        <time>2020-08-03T11:49:30.155Z</time>
      </trkpt>
      <trkpt lat="63.07419" lon="7.64835">
        <ele>55.494605</ele>
        <time>2020-08-03T11:49:50.142Z</time>
      </trkpt>
      <trkpt lat="63.07668" lon="7.65373">
        <ele>50.624919</ele>
        <time>2020-08-03T11:50:11.141Z</time>
      </trkpt>
      <trkpt lat="63.07839" lon="7.65777">
        <ele>60.539913</ele>
        <time>2020-08-03T11:50:58.141Z</time>
      </trkpt>
      <trkpt lat="63.08099" lon="7.66014">
        <ele>68.47729</ele>
        <time>2020-08-03T11:51:18.150Z</time>
      </trkpt>
      <trkpt lat="63.08344" lon="7.66214">
        <ele>67.556123</ele>
        <time>2020-08-03T11:52:24.199Z</time>
      </trkpt>
      <trkpt lat="63.08574" lon="7.6598">
        <ele>68.453271</ele>
        <time>2020-08-03T11:53:12.156Z</time>
      </trkpt>
      <trkpt lat="63.08659" lon="7.65326">
        <ele>74.237335</ele>
        <time>2020-08-03T11:53:33.132Z</time>
      </trkpt>
      <trkpt lat="63.08848" lon="7.64476">
        <ele>70.376739</ele>
        <time>2020-08-03T11:53:53.122Z</time>
      </trkpt>
      <trkpt lat="63.09081" lon="7.63748">
        <ele>71.823254</ele>
        <time>2020-08-03T11:54:13.138Z</time>
      </trkpt>
      <trkpt lat="63.09465" lon="7.63364">
        <ele>62.132757</ele>
        <time>2020-08-03T11:54:34.150Z</time>
      </trkpt>
      <trkpt lat="63.09759" lon="7.6283">
        <ele>54.595989</ele>
        <time>2020-08-03T11:54:54.152Z</time>
      </trkpt>
      <trkpt lat="63.10116" lon="7.62708">
        <ele>61.359147</ele>
        <time>2020-08-03T11:55:15.126Z</time>
      </trkpt>
      <trkpt lat="63.10346" lon="7.62755">
        <ele>65.947518</ele>
        <time>2020-08-03T11:56:06.123Z</time>
      </trkpt>
      <trkpt lat="63.10561" lon="7.62914">
        <ele>67.706781</ele>
        <time>2020-08-03T11:56:26.131Z</time>
      </trkpt>
      <trkpt lat="63.10898" lon="7.63316">
        <ele>63.883783</ele>
        <time>2020-08-03T11:56:47.116Z</time>
      </trkpt>
    </trkseg>
  </trk>
</gpx>